Riverside, Oregon
Current Conditions -  °F | °C
As of 12:53 PM on Friday 31 Oct 2014 (Local Time) from KBNO Reporting Station
Overcast Overcast  
Wind Chill: 59°   Ceiling: 7500
Heat Index: 59°   Visibility: 10mi
Dew Point: 31°   Wind: 14mph
Humidity: 35%   Direction: 230°SW
Pressure: 29.8"   Gusts: NA
Location:  43.54°N, 118.16°W
Report Text: KBNO 311953Z AUTO 23012KT 10SM OVC075 15/M01 A2980 RMK AO2 SLP077 T01501006 $
Loading
Personal Weather Stations






























Interactive Weather Map
Tropical Storm Tracking
New forecast layout! Learn more

10-Day Weather Forecast

Advertisements
Track Severe Weather on mobile